AEZ2601 LICJ-LIRF
Flight info
| Callsign | AEZ2601 |
|---|---|
| Flight time | 0h 52m |
| Altitude | 34000 |
| Route | LURON DCT DORAS DCT BEROL DCT PNZ DCT NEKPI DCT LAT |
| Aircraft | A319/M-SDE3FGHIRWY/LB1 |
Departure
| Time | 2026-05-07 15:34 |
|---|---|
| Airport | Falcone–Borsellino Airport (LICJ) |
Arrival
| Time | 2026-05-07 16:26 |
|---|---|
| Airport | Rome–Fiumicino Leonardo da Vinci International Airport (LIRF) |
| Time | Latitude | Longitude | Altitude | Speed | Heading |
|---|---|---|---|---|---|
| 2026-05-07 15:28 | 38.18476 | 13.10632 | 53 ft | 0 kts | 248° |
| 2026-05-07 15:28 | 38.18474 | 13.10627 | 50 ft | 2 kts | 248° |
| 2026-05-07 15:29 | 38.18463 | 13.10592 | 51 ft | 7 kts | 248° |
| 2026-05-07 15:29 | 38.18427 | 13.10527 | 53 ft | 12 kts | 212° |
| 2026-05-07 15:29 | 38.18339 | 13.10471 | 51 ft | 17 kts | 218° |
| 2026-05-07 15:29 | 38.18259 | 13.10372 | 53 ft | 18 kts | 191° |
| 2026-05-07 15:30 | 38.18174 | 13.10242 | 49 ft | 22 kts | 247° |
| 2026-05-07 15:30 | 38.18106 | 13.10042 | 53 ft | 27 kts | 248° |
| 2026-05-07 15:30 | 38.18043 | 13.09851 | 50 ft | 31 kts | 247° |
| 2026-05-07 15:31 | 38.17973 | 13.09643 | 53 ft | 34 kts | 247° |
| 2026-05-07 15:31 | 38.17875 | 13.09353 | 53 ft | 35 kts | 246° |
| 2026-05-07 15:31 | 38.17780 | 13.09074 | 53 ft | 33 kts | 248° |
| 2026-05-07 15:31 | 38.17672 | 13.08885 | 50 ft | 17 kts | 216° |
| 2026-05-07 15:32 | 38.17607 | 13.08825 | 53 ft | 11 kts | 216° |
| 2026-05-07 15:32 | 38.17546 | 13.08768 | 53 ft | 11 kts | 216° |
| 2026-05-07 15:32 | 38.17480 | 13.08784 | 52 ft | 11 kts | 120° |
| 2026-05-07 15:32 | 38.17483 | 13.08811 | 53 ft | 1 kts | 64° |
| 2026-05-07 15:33 | 38.17491 | 13.08830 | 51 ft | 8 kts | 64° |
| 2026-05-07 15:33 | 38.17614 | 13.09191 | 53 ft | 84 kts | 66° |
| 2026-05-07 15:33 | 38.17933 | 13.10144 | 53 ft | 147 kts | 68° |
| 2026-05-07 15:33 | 38.18386 | 13.11511 | 302 ft | 175 kts | 66° |
| 2026-05-07 15:34 | 38.18839 | 13.12933 | 996 ft | 172 kts | 68° |
| 2026-05-07 15:34 | 38.19296 | 13.14343 | 1705 ft | 173 kts | 66° |
| 2026-05-07 15:34 | 38.19805 | 13.15727 | 2272 ft | 182 kts | 64° |
| 2026-05-07 15:34 | 38.20424 | 13.17236 | 2642 ft | 202 kts | 62° |
| 2026-05-07 15:35 | 38.21170 | 13.18876 | 2957 ft | 229 kts | 55° |
| 2026-05-07 15:35 | 38.22353 | 13.20382 | 3395 ft | 255 kts | 34° |
| 2026-05-07 15:35 | 38.24003 | 13.21417 | 4044 ft | 271 kts | 24° |
| 2026-05-07 15:35 | 38.25773 | 13.22334 | 4912 ft | 278 kts | 22° |
| 2026-05-07 15:36 | 38.27589 | 13.23235 | 5851 ft | 283 kts | 22° |
| 2026-05-07 15:36 | 38.29439 | 13.24137 | 6780 ft | 286 kts | 21° |
| 2026-05-07 15:36 | 38.31307 | 13.25077 | 7650 ft | 291 kts | 21° |
| 2026-05-07 15:36 | 38.33162 | 13.26062 | 8534 ft | 295 kts | 22° |
| 2026-05-07 15:37 | 38.35050 | 13.27117 | 9451 ft | 298 kts | 23° |
| 2026-05-07 15:37 | 38.36938 | 13.28224 | 10322 ft | 299 kts | 25° |
| 2026-05-07 15:37 | 38.38845 | 13.29379 | 10912 ft | 313 kts | 23° |
| 2026-05-07 15:37 | 38.41032 | 13.30006 | 11156 ft | 335 kts | 359° |
| 2026-05-07 15:38 | 38.43400 | 13.29652 | 11535 ft | 349 kts | 343° |
| 2026-05-07 15:38 | 38.45716 | 13.28649 | 12232 ft | 354 kts | 336° |
| 2026-05-07 15:38 | 38.48047 | 13.27581 | 12999 ft | 358 kts | 338° |
| 2026-05-07 15:38 | 38.50395 | 13.26593 | 13754 ft | 362 kts | 339° |
| 2026-05-07 15:39 | 38.52804 | 13.25617 | 14435 ft | 365 kts | 339° |
| 2026-05-07 15:39 | 38.55235 | 13.24635 | 15114 ft | 368 kts | 339° |
| 2026-05-07 15:39 | 38.57679 | 13.23632 | 15786 ft | 371 kts | 338° |
| 2026-05-07 15:39 | 38.60142 | 13.22601 | 16471 ft | 374 kts | 338° |
| 2026-05-07 15:40 | 38.62626 | 13.21546 | 17114 ft | 378 kts | 337° |
| 2026-05-07 15:40 | 38.65127 | 13.20480 | 17782 ft | 381 kts | 337° |
| 2026-05-07 15:40 | 38.67649 | 13.19401 | 18420 ft | 384 kts | 336° |
| 2026-05-07 15:40 | 38.70187 | 13.18311 | 19002 ft | 386 kts | 336° |
| 2026-05-07 15:41 | 38.72709 | 13.17225 | 19597 ft | 389 kts | 336° |
| 2026-05-07 15:41 | 38.75283 | 13.16123 | 20210 ft | 391 kts | 336° |
| 2026-05-07 15:41 | 38.77869 | 13.15023 | 20801 ft | 393 kts | 335° |
| 2026-05-07 15:41 | 38.80472 | 13.13914 | 21388 ft | 396 kts | 335° |
| 2026-05-07 15:42 | 38.83092 | 13.12792 | 21991 ft | 398 kts | 335° |
| 2026-05-07 15:42 | 38.85775 | 13.11799 | 22553 ft | 407 kts | 342° |
| 2026-05-07 15:42 | 38.88616 | 13.11358 | 23096 ft | 416 kts | 350° |
| 2026-05-07 15:42 | 38.91518 | 13.11143 | 23600 ft | 419 kts | 350° |
| 2026-05-07 15:43 | 38.94398 | 13.10931 | 24021 ft | 422 kts | 350° |
| 2026-05-07 15:43 | 38.97339 | 13.10712 | 24427 ft | 425 kts | 349° |
| 2026-05-07 15:43 | 39.00307 | 13.10493 | 24816 ft | 429 kts | 349° |
| 2026-05-07 15:43 | 39.03297 | 13.10273 | 25207 ft | 432 kts | 349° |
| 2026-05-07 15:44 | 39.06310 | 13.10048 | 25591 ft | 435 kts | 349° |
| 2026-05-07 15:44 | 39.09340 | 13.09822 | 26008 ft | 437 kts | 349° |
| 2026-05-07 15:44 | 39.12387 | 13.09594 | 26406 ft | 440 kts | 349° |
| 2026-05-07 15:44 | 39.15455 | 13.09363 | 26798 ft | 443 kts | 348° |
| 2026-05-07 15:45 | 39.18541 | 13.09132 | 27196 ft | 445 kts | 348° |
| 2026-05-07 15:45 | 39.21643 | 13.08900 | 27584 ft | 448 kts | 348° |
| 2026-05-07 15:45 | 39.24718 | 13.08670 | 27966 ft | 450 kts | 348° |
| 2026-05-07 15:45 | 39.27856 | 13.08435 | 28340 ft | 453 kts | 348° |
| 2026-05-07 15:46 | 39.34175 | 13.07957 | 29161 ft | 457 kts | 348° |
| 2026-05-07 15:46 | 39.37356 | 13.07713 | 29528 ft | 459 kts | 348° |
| 2026-05-07 15:46 | 39.40554 | 13.07466 | 29885 ft | 461 kts | 348° |
| 2026-05-07 15:47 | 39.43761 | 13.07219 | 30181 ft | 463 kts | 347° |
| 2026-05-07 15:47 | 39.46990 | 13.06972 | 30447 ft | 466 kts | 347° |
| 2026-05-07 15:47 | 39.50238 | 13.06725 | 30707 ft | 469 kts | 347° |
| 2026-05-07 15:47 | 39.53457 | 13.06480 | 30981 ft | 471 kts | 348° |
| 2026-05-07 15:48 | 39.56743 | 13.06230 | 31237 ft | 474 kts | 347° |
| 2026-05-07 15:48 | 39.60043 | 13.05980 | 31542 ft | 475 kts | 347° |
| 2026-05-07 15:48 | 39.63337 | 13.05731 | 31837 ft | 476 kts | 346° |
| 2026-05-07 15:49 | 39.69832 | 13.05256 | 31918 ft | 456 kts | 346° |
| 2026-05-07 15:49 | 39.76115 | 13.04782 | 31923 ft | 450 kts | 346° |
| 2026-05-07 15:50 | 39.82365 | 13.04279 | 31918 ft | 450 kts | 346° |
| 2026-05-07 15:50 | 39.88563 | 13.03784 | 31925 ft | 450 kts | 346° |
| 2026-05-07 15:51 | 39.94813 | 13.03305 | 31931 ft | 450 kts | 346° |
| 2026-05-07 15:51 | 40.01061 | 13.02827 | 31926 ft | 450 kts | 346° |
| 2026-05-07 15:52 | 40.07308 | 13.02345 | 31921 ft | 450 kts | 346° |
| 2026-05-07 15:52 | 40.13510 | 13.01859 | 31916 ft | 449 kts | 346° |
| 2026-05-07 15:53 | 40.19752 | 13.01367 | 31952 ft | 449 kts | 346° |
| 2026-05-07 15:53 | 40.25987 | 13.00885 | 31951 ft | 448 kts | 346° |
| 2026-05-07 15:54 | 40.32205 | 13.00395 | 31950 ft | 447 kts | 346° |
| 2026-05-07 15:54 | 40.38366 | 12.99904 | 31951 ft | 446 kts | 346° |
| 2026-05-07 15:55 | 40.44561 | 12.99417 | 31977 ft | 445 kts | 346° |
| 2026-05-07 15:55 | 40.50734 | 12.98943 | 31966 ft | 444 kts | 346° |
| 2026-05-07 15:55 | 40.53819 | 12.98701 | 31784 ft | 444 kts | 346° |
| 2026-05-07 15:56 | 40.56898 | 12.98458 | 31530 ft | 443 kts | 347° |
| 2026-05-07 15:56 | 40.59966 | 12.98213 | 31289 ft | 443 kts | 347° |
| 2026-05-07 15:56 | 40.63046 | 12.97968 | 31067 ft | 443 kts | 348° |
| 2026-05-07 15:56 | 40.66076 | 12.97728 | 30823 ft | 442 kts | 348° |
| 2026-05-07 15:57 | 40.69145 | 12.97486 | 30583 ft | 441 kts | 349° |
| 2026-05-07 15:57 | 40.72196 | 12.97248 | 30260 ft | 437 kts | 349° |
| 2026-05-07 15:57 | 40.75221 | 12.97012 | 29650 ft | 434 kts | 350° |
| 2026-05-07 15:57 | 40.78222 | 12.96777 | 29098 ft | 430 kts | 350° |
| 2026-05-07 15:58 | 40.81190 | 12.96542 | 28552 ft | 425 kts | 350° |
| 2026-05-07 15:58 | 40.84137 | 12.96306 | 28026 ft | 421 kts | 350° |
| 2026-05-07 15:58 | 40.87054 | 12.96074 | 27485 ft | 418 kts | 350° |
| 2026-05-07 15:58 | 40.89950 | 12.95906 | 26984 ft | 417 kts | 355° |
| 2026-05-07 15:59 | 40.92812 | 12.96244 | 26497 ft | 420 kts | 4° |
| 2026-05-07 15:59 | 40.95666 | 12.97056 | 26013 ft | 419 kts | 7° |
| 2026-05-07 15:59 | 40.98498 | 12.97902 | 25538 ft | 416 kts | 7° |
| 2026-05-07 15:59 | 41.01310 | 12.98743 | 25062 ft | 412 kts | 7° |
| 2026-05-07 16:00 | 41.04097 | 12.99578 | 24620 ft | 409 kts | 7° |
| 2026-05-07 16:00 | 41.06869 | 13.00410 | 24148 ft | 408 kts | 7° |
| 2026-05-07 16:00 | 41.09632 | 13.01237 | 23684 ft | 406 kts | 7° |
| 2026-05-07 16:00 | 41.12378 | 13.02055 | 23163 ft | 404 kts | 7° |
| 2026-05-07 16:01 | 41.15104 | 13.02870 | 22704 ft | 400 kts | 7° |
| 2026-05-07 16:01 | 41.17807 | 13.03677 | 22243 ft | 396 kts | 7° |
| 2026-05-07 16:01 | 41.20456 | 13.04467 | 21781 ft | 394 kts | 7° |
| 2026-05-07 16:01 | 41.23115 | 13.05266 | 21317 ft | 391 kts | 8° |
| 2026-05-07 16:02 | 41.25760 | 13.06063 | 20851 ft | 389 kts | 8° |
| 2026-05-07 16:02 | 41.28390 | 13.06853 | 20368 ft | 386 kts | 7° |
| 2026-05-07 16:02 | 41.31025 | 13.07256 | 19907 ft | 377 kts | 355° |
| 2026-05-07 16:02 | 41.33607 | 13.06942 | 19456 ft | 369 kts | 343° |
| 2026-05-07 16:03 | 41.35998 | 13.05996 | 19019 ft | 360 kts | 332° |
| 2026-05-07 16:03 | 41.38203 | 13.04478 | 18586 ft | 354 kts | 324° |
| 2026-05-07 16:03 | 41.40310 | 13.02796 | 18140 ft | 353 kts | 324° |
| 2026-05-07 16:03 | 41.42409 | 13.01123 | 17679 ft | 350 kts | 324° |
| 2026-05-07 16:04 | 41.44493 | 12.99467 | 17255 ft | 347 kts | 324° |
| 2026-05-07 16:04 | 41.46564 | 12.97824 | 16844 ft | 345 kts | 325° |
| 2026-05-07 16:04 | 41.48616 | 12.96194 | 16414 ft | 343 kts | 325° |
| 2026-05-07 16:04 | 41.50653 | 12.94572 | 16141 ft | 336 kts | 325° |
| 2026-05-07 16:05 | 41.52629 | 12.93000 | 16001 ft | 327 kts | 325° |
| 2026-05-07 16:05 | 41.54462 | 12.91354 | 15776 ft | 317 kts | 315° |
| 2026-05-07 16:05 | 41.56066 | 12.89362 | 15682 ft | 314 kts | 312° |
| 2026-05-07 16:05 | 41.57659 | 12.87367 | 15499 ft | 313 kts | 313° |
| 2026-05-07 16:06 | 41.59250 | 12.85383 | 15296 ft | 312 kts | 313° |
| 2026-05-07 16:06 | 41.60835 | 12.83411 | 15106 ft | 311 kts | 313° |
| 2026-05-07 16:06 | 41.62420 | 12.81441 | 14916 ft | 311 kts | 313° |
| 2026-05-07 16:06 | 41.63996 | 12.79475 | 14717 ft | 310 kts | 313° |
| 2026-05-07 16:07 | 41.65566 | 12.77513 | 14521 ft | 309 kts | 313° |
| 2026-05-07 16:07 | 41.67111 | 12.75581 | 14330 ft | 307 kts | 313° |
| 2026-05-07 16:07 | 41.68671 | 12.73629 | 14135 ft | 306 kts | 314° |
| 2026-05-07 16:07 | 41.70224 | 12.71686 | 13948 ft | 306 kts | 314° |
| 2026-05-07 16:08 | 41.71771 | 12.69745 | 13746 ft | 305 kts | 314° |
| 2026-05-07 16:08 | 41.73319 | 12.67805 | 13537 ft | 304 kts | 314° |
| 2026-05-07 16:08 | 41.74864 | 12.65870 | 13344 ft | 304 kts | 314° |
| 2026-05-07 16:08 | 41.76402 | 12.63936 | 13152 ft | 303 kts | 314° |
| 2026-05-07 16:09 | 41.77930 | 12.62006 | 12960 ft | 302 kts | 314° |
| 2026-05-07 16:09 | 41.79461 | 12.60073 | 12769 ft | 302 kts | 314° |
| 2026-05-07 16:09 | 41.80963 | 12.58168 | 12583 ft | 301 kts | 314° |
| 2026-05-07 16:09 | 41.82454 | 12.56206 | 12391 ft | 300 kts | 313° |
| 2026-05-07 16:10 | 41.83924 | 12.54222 | 12202 ft | 300 kts | 312° |
| 2026-05-07 16:10 | 41.85384 | 12.52233 | 12011 ft | 299 kts | 312° |
| 2026-05-07 16:10 | 41.86838 | 12.50253 | 11834 ft | 295 kts | 312° |
| 2026-05-07 16:10 | 41.88254 | 12.48327 | 11701 ft | 285 kts | 312° |
| 2026-05-07 16:11 | 41.89736 | 12.46608 | 11512 ft | 280 kts | 325° |
| 2026-05-07 16:11 | 41.91453 | 12.45504 | 11417 ft | 279 kts | 340° |
| 2026-05-07 16:11 | 41.93309 | 12.44735 | 11259 ft | 278 kts | 341° |
| 2026-05-07 16:11 | 41.95145 | 12.43972 | 11101 ft | 277 kts | 341° |
| 2026-05-07 16:12 | 41.96987 | 12.43206 | 10935 ft | 277 kts | 341° |
| 2026-05-07 16:12 | 41.98825 | 12.42441 | 10766 ft | 276 kts | 341° |
| 2026-05-07 16:12 | 42.00658 | 12.41679 | 10589 ft | 276 kts | 341° |
| 2026-05-07 16:12 | 42.02490 | 12.40917 | 10428 ft | 275 kts | 341° |
| 2026-05-07 16:13 | 42.04313 | 12.40159 | 10259 ft | 274 kts | 341° |
| 2026-05-07 16:13 | 42.06104 | 12.39411 | 10096 ft | 273 kts | 341° |
| 2026-05-07 16:13 | 42.07916 | 12.38656 | 9927 ft | 272 kts | 341° |
| 2026-05-07 16:13 | 42.09724 | 12.37904 | 9758 ft | 272 kts | 341° |
| 2026-05-07 16:14 | 42.11505 | 12.37162 | 9564 ft | 264 kts | 341° |
| 2026-05-07 16:14 | 42.13244 | 12.36434 | 9385 ft | 258 kts | 341° |
| 2026-05-07 16:14 | 42.14958 | 12.35713 | 9262 ft | 258 kts | 341° |
| 2026-05-07 16:14 | 42.16667 | 12.34992 | 9112 ft | 257 kts | 340° |
| 2026-05-07 16:15 | 42.18371 | 12.34274 | 8957 ft | 256 kts | 341° |
| 2026-05-07 16:15 | 42.20068 | 12.33560 | 8855 ft | 255 kts | 341° |
| 2026-05-07 16:15 | 42.21741 | 12.32856 | 8765 ft | 255 kts | 341° |
| 2026-05-07 16:15 | 42.23437 | 12.32142 | 8668 ft | 255 kts | 341° |
| 2026-05-07 16:16 | 42.25126 | 12.31430 | 8571 ft | 255 kts | 341° |
| 2026-05-07 16:16 | 42.26820 | 12.30714 | 8473 ft | 254 kts | 341° |
| 2026-05-07 16:16 | 42.28400 | 12.29770 | 8348 ft | 242 kts | 322° |
| 2026-05-07 16:16 | 42.29515 | 12.28175 | 8230 ft | 230 kts | 298° |
| 2026-05-07 16:17 | 42.30048 | 12.26176 | 8092 ft | 225 kts | 276° |
| 2026-05-07 16:17 | 42.29963 | 12.24112 | 7969 ft | 223 kts | 253° |
| 2026-05-07 16:17 | 42.29299 | 12.22254 | 7843 ft | 221 kts | 231° |
| 2026-05-07 16:17 | 42.28157 | 12.20881 | 7722 ft | 222 kts | 210° |
| 2026-05-07 16:18 | 42.26699 | 12.20195 | 7568 ft | 224 kts | 187° |
| 2026-05-07 16:18 | 42.25143 | 12.20058 | 7357 ft | 224 kts | 184° |
| 2026-05-07 16:18 | 42.23588 | 12.19936 | 7135 ft | 224 kts | 184° |
| 2026-05-07 16:18 | 42.22025 | 12.19809 | 6909 ft | 225 kts | 184° |
| 2026-05-07 16:19 | 42.20466 | 12.19680 | 6695 ft | 224 kts | 184° |
| 2026-05-07 16:19 | 42.18916 | 12.19550 | 6649 ft | 224 kts | 184° |
| 2026-05-07 16:19 | 42.17375 | 12.19420 | 6590 ft | 225 kts | 184° |
| 2026-05-07 16:19 | 42.15816 | 12.19288 | 6525 ft | 225 kts | 184° |
| 2026-05-07 16:20 | 42.14269 | 12.19007 | 6389 ft | 226 kts | 193° |
| 2026-05-07 16:20 | 42.12722 | 12.18534 | 6120 ft | 228 kts | 193° |
| 2026-05-07 16:20 | 42.11178 | 12.18067 | 5786 ft | 228 kts | 193° |
| 2026-05-07 16:20 | 42.09633 | 12.17600 | 5455 ft | 228 kts | 192° |
| 2026-05-07 16:21 | 42.08085 | 12.17135 | 5132 ft | 228 kts | 192° |
| 2026-05-07 16:21 | 42.06537 | 12.16993 | 4804 ft | 227 kts | 171° |
| 2026-05-07 16:21 | 42.05020 | 12.17555 | 4464 ft | 227 kts | 161° |
| 2026-05-07 16:21 | 42.03515 | 12.18205 | 4143 ft | 227 kts | 161° |
| 2026-05-07 16:22 | 42.02000 | 12.18847 | 3591 ft | 231 kts | 162° |
| 2026-05-07 16:22 | 42.00459 | 12.19487 | 3246 ft | 232 kts | 162° |
| 2026-05-07 16:22 | 41.98918 | 12.20134 | 2918 ft | 232 kts | 162° |
| 2026-05-07 16:22 | 41.97382 | 12.20780 | 2610 ft | 231 kts | 163° |
| 2026-05-07 16:23 | 41.95871 | 12.21416 | 2315 ft | 223 kts | 162° |
| 2026-05-07 16:23 | 41.94445 | 12.22015 | 2029 ft | 212 kts | 162° |
| 2026-05-07 16:23 | 41.93072 | 12.22592 | 1784 ft | 201 kts | 163° |
| 2026-05-07 16:23 | 41.91772 | 12.23139 | 1495 ft | 190 kts | 163° |
| 2026-05-07 16:24 | 41.90559 | 12.23648 | 1251 ft | 172 kts | 164° |
| 2026-05-07 16:24 | 41.89478 | 12.24103 | 1027 ft | 154 kts | 165° |
| 2026-05-07 16:24 | 41.88495 | 12.24515 | 829 ft | 143 kts | 168° |
| 2026-05-07 16:24 | 41.87561 | 12.24907 | 659 ft | 139 kts | 168° |
| 2026-05-07 16:25 | 41.86634 | 12.25295 | 478 ft | 139 kts | 166° |
| 2026-05-07 16:25 | 41.85735 | 12.25671 | 305 ft | 137 kts | 168° |
| 2026-05-07 16:25 | 41.84818 | 12.26057 | 122 ft | 138 kts | 167° |
| 2026-05-07 16:25 | 41.83910 | 12.26424 | 28 ft | 127 kts | 164° |
| 2026-05-07 16:26 | 41.83188 | 12.26720 | 10 ft | 86 kts | 160° |
| 2026-05-07 16:26 | 41.82776 | 12.26912 | 14 ft | 48 kts | 162° |
| 2026-05-07 16:26 | 41.82474 | 12.27039 | 11 ft | 45 kts | 163° |
| 2026-05-07 16:26 | 41.82278 | 12.27116 | 10 ft | 44 kts | 166° |
| 2026-05-07 16:27 | 41.81899 | 12.27091 | 11 ft | 37 kts | 192° |
| 2026-05-07 16:27 | 41.81651 | 12.27066 | 12 ft | 36 kts | 164° |
| 2026-05-07 16:27 | 41.81409 | 12.27164 | 12 ft | 36 kts | 162° |
| 2026-05-07 16:27 | 41.81169 | 12.27264 | 13 ft | 36 kts | 163° |
| 2026-05-07 16:28 | 41.80930 | 12.27349 | 14 ft | 35 kts | 178° |
| 2026-05-07 16:28 | 41.80693 | 12.27283 | 13 ft | 35 kts | 216° |
| 2026-05-07 16:28 | 41.80593 | 12.27000 | 13 ft | 33 kts | 250° |
| 2026-05-07 16:28 | 41.80514 | 12.26710 | 16 ft | 32 kts | 249° |
| 2026-05-07 16:29 | 41.80438 | 12.26436 | 15 ft | 31 kts | 250° |
| 2026-05-07 16:29 | 41.80284 | 12.26401 | 14 ft | 25 kts | 164° |
| 2026-05-07 16:29 | 41.80141 | 12.26435 | 14 ft | 18 kts | 163° |
| 2026-05-07 16:29 | 41.80103 | 12.26523 | 14 ft | 9 kts | 80° |
| 2026-05-07 16:30 | 41.80094 | 12.26600 | 15 ft | 8 kts | 129° |
| 2026-05-07 16:30 | 41.80056 | 12.26632 | 14 ft | 4 kts | 152° |
| 2026-05-07 16:30 | 41.80026 | 12.26632 | 14 ft | 4 kts | 210° |
| 2026-05-07 16:30 | 41.80020 | 12.26609 | 14 ft | 4 kts | 253° |
| 2026-05-07 16:31 | 41.80011 | 12.26571 | 15 ft | 3 kts | 250° |
| 2026-05-07 16:31 | 41.80009 | 12.26564 | 16 ft | 0 kts | 250° |